sensor_id;sensor_type;location;lat;lon;timestamp;P1;durP1;ratioP1;P2;durP2;ratioP2
12052;SDS011;6087;48.982;12.064;2023-03-04T00:02:01;9.87;;;6.23;;
12052;SDS011;6087;48.982;12.064;2023-03-04T00:04:29;11.33;;;6.20;;
12052;SDS011;6087;48.982;12.064;2023-03-04T00:06:57;11.50;;;6.03;;
12052;SDS011;6087;48.982;12.064;2023-03-04T00:09:24;10.13;;;6.33;;
12052;SDS011;6087;48.982;12.064;2023-03-04T00:11:51;11.27;;;5.97;;
12052;SDS011;6087;48.982;12.064;2023-03-04T00:14:18;11.80;;;6.77;;
12052;SDS011;6087;48.982;12.064;2023-03-04T00:16:49;11.93;;;6.57;;
12052;SDS011;6087;48.982;12.064;2023-03-04T00:19:19;10.43;;;6.73;;
12052;SDS011;6087;48.982;12.064;2023-03-04T00:21:46;10.00;;;5.93;;
12052;SDS011;6087;48.982;12.064;2023-03-04T00:24:13;13.07;;;7.07;;
12052;SDS011;6087;48.982;12.064;2023-03-04T00:26:40;9.87;;;6.13;;
12052;SDS011;6087;48.982;12.064;2023-03-04T00:29:07;10.53;;;6.87;;
12052;SDS011;6087;48.982;12.064;2023-03-04T00:31:34;10.30;;;6.13;;
12052;SDS011;6087;48.982;12.064;2023-03-04T00:34:05;13.10;;;6.87;;
12052;SDS011;6087;48.982;12.064;2023-03-04T00:36:37;9.77;;;6.10;;
12052;SDS011;6087;48.982;12.064;2023-03-04T00:39:04;9.80;;;5.97;;
12052;SDS011;6087;48.982;12.064;2023-03-04T00:41:31;10.33;;;6.27;;
12052;SDS011;6087;48.982;12.064;2023-03-04T00:43:58;10.53;;;6.27;;
12052;SDS011;6087;48.982;12.064;2023-03-04T00:46:25;9.70;;;6.07;;
12052;SDS011;6087;48.982;12.064;2023-03-04T00:48:52;9.27;;;6.20;;
12052;SDS011;6087;48.982;12.064;2023-03-04T00:51:20;11.03;;;6.07;;
12052;SDS011;6087;48.982;12.064;2023-03-04T00:53:47;9.67;;;6.73;;
12052;SDS011;6087;48.982;12.064;2023-03-04T00:56:16;9.83;;;6.70;;
12052;SDS011;6087;48.982;12.064;2023-03-04T00:58:43;13.97;;;7.20;;
12052;SDS011;6087;48.982;12.064;2023-03-04T01:01:16;12.30;;;7.40;;
12052;SDS011;6087;48.982;12.064;2023-03-04T01:03:43;10.33;;;7.53;;
12052;SDS011;6087;48.982;12.064;2023-03-04T01:06:10;10.10;;;7.10;;
12052;SDS011;6087;48.982;12.064;2023-03-04T01:08:42;12.23;;;7.37;;
12052;SDS011;6087;48.982;12.064;2023-03-04T01:11:11;11.50;;;7.80;;
12052;SDS011;6087;48.982;12.064;2023-03-04T01:13:38;14.17;;;7.87;;
12052;SDS011;6087;48.982;12.064;2023-03-04T01:16:06;8.97;;;7.50;;
12052;SDS011;6087;48.982;12.064;2023-03-04T01:18:35;13.80;;;7.20;;
12052;SDS011;6087;48.982;12.064;2023-03-04T01:21:02;11.30;;;7.57;;
12052;SDS011;6087;48.982;12.064;2023-03-04T01:23:29;13.03;;;7.43;;
12052;SDS011;6087;48.982;12.064;2023-03-04T01:26:03;15.03;;;7.67;;
12052;SDS011;6087;48.982;12.064;2023-03-04T01:28:30;11.03;;;7.57;;
12052;SDS011;6087;48.982;12.064;2023-03-04T01:30:59;11.97;;;7.33;;
12052;SDS011;6087;48.982;12.064;2023-03-04T01:33:32;11.87;;;7.50;;
12052;SDS011;6087;48.982;12.064;2023-03-04T01:35:59;11.03;;;7.23;;
12052;SDS011;6087;48.982;12.064;2023-03-04T01:38:26;11.03;;;7.70;;
12052;SDS011;6087;48.982;12.064;2023-03-04T01:40:56;13.83;;;7.80;;
12052;SDS011;6087;48.982;12.064;2023-03-04T01:43:28;8.80;;;7.90;;
12052;SDS011;6087;48.982;12.064;2023-03-04T01:45:56;11.53;;;7.50;;
12052;SDS011;6087;48.982;12.064;2023-03-04T01:48:24;12.93;;;7.80;;
12052;SDS011;6087;48.982;12.064;2023-03-04T01:50:53;12.63;;;7.80;;
12052;SDS011;6087;48.982;12.064;2023-03-04T01:53:27;14.10;;;8.07;;
12052;SDS011;6087;48.982;12.064;2023-03-04T01:55:55;10.27;;;7.60;;
12052;SDS011;6087;48.982;12.064;2023-03-04T01:58:27;11.57;;;7.53;;
12052;SDS011;6087;48.982;12.064;2023-03-04T02:00:57;12.87;;;7.87;;
12052;SDS011;6087;48.982;12.064;2023-03-04T02:03:27;13.20;;;7.43;;
12052;SDS011;6087;48.982;12.064;2023-03-04T02:05:54;13.70;;;6.93;;
12052;SDS011;6087;48.982;12.064;2023-03-04T02:08:22;10.73;;;7.17;;
12052;SDS011;6087;48.982;12.064;2023-03-04T02:10:50;10.10;;;6.97;;
12052;SDS011;6087;48.982;12.064;2023-03-04T02:13:20;9.83;;;7.20;;
12052;SDS011;6087;48.982;12.064;2023-03-04T02:15:48;11.30;;;7.10;;
12052;SDS011;6087;48.982;12.064;2023-03-04T02:18:16;11.00;;;7.73;;
12052;SDS011;6087;48.982;12.064;2023-03-04T02:24:08;12.23;;;7.30;;
12052;SDS011;6087;48.982;12.064;2023-03-04T02:26:45;9.70;;;6.23;;
12052;SDS011;6087;48.982;12.064;2023-03-04T02:29:13;10.10;;;7.03;;
12052;SDS011;6087;48.982;12.064;2023-03-04T02:31:42;10.53;;;6.63;;
12052;SDS011;6087;48.982;12.064;2023-03-04T02:34:11;13.07;;;7.93;;
12052;SDS011;6087;48.982;12.064;2023-03-04T02:36:40;10.00;;;7.37;;
12052;SDS011;6087;48.982;12.064;2023-03-04T02:39:10;12.10;;;6.90;;
12052;SDS011;6087;48.982;12.064;2023-03-04T02:41:38;11.27;;;7.20;;
12052;SDS011;6087;48.982;12.064;2023-03-04T02:44:09;11.03;;;6.40;;
12052;SDS011;6087;48.982;12.064;2023-03-04T02:46:42;11.33;;;6.63;;
12052;SDS011;6087;48.982;12.064;2023-03-04T02:49:08;10.10;;;6.77;;
12052;SDS011;6087;48.982;12.064;2023-03-04T02:51:35;10.43;;;7.13;;
12052;SDS011;6087;48.982;12.064;2023-03-04T02:54:03;11.70;;;7.40;;
12052;SDS011;6087;48.982;12.064;2023-03-04T02:56:30;11.50;;;7.17;;
12052;SDS011;6087;48.982;12.064;2023-03-04T02:58:57;13.80;;;7.77;;
12052;SDS011;6087;48.982;12.064;2023-03-04T03:01:28;12.90;;;7.20;;
12052;SDS011;6087;48.982;12.064;2023-03-04T03:03:54;9.63;;;7.00;;
12052;SDS011;6087;48.982;12.064;2023-03-04T03:06:21;10.60;;;7.17;;
12052;SDS011;6087;48.982;12.064;2023-03-04T03:08:48;10.33;;;6.90;;
12052;SDS011;6087;48.982;12.064;2023-03-04T03:11:15;11.87;;;7.73;;
12052;SDS011;6087;48.982;12.064;2023-03-04T03:13:45;12.97;;;7.03;;
12052;SDS011;6087;48.982;12.064;2023-03-04T03:16:12;11.43;;;7.80;;
12052;SDS011;6087;48.982;12.064;2023-03-04T03:18:40;12.37;;;7.50;;
12052;SDS011;6087;48.982;12.064;2023-03-04T03:21:07;11.87;;;7.40;;
12052;SDS011;6087;48.982;12.064;2023-03-04T03:23:34;13.87;;;7.43;;
12052;SDS011;6087;48.982;12.064;2023-03-04T03:26:00;11.87;;;6.90;;
12052;SDS011;6087;48.982;12.064;2023-03-04T03:28:28;14.03;;;7.60;;
12052;SDS011;6087;48.982;12.064;2023-03-04T03:30:55;12.97;;;7.83;;
12052;SDS011;6087;48.982;12.064;2023-03-04T03:33:21;11.33;;;6.90;;
12052;SDS011;6087;48.982;12.064;2023-03-04T03:35:50;9.90;;;7.13;;
12052;SDS011;6087;48.982;12.064;2023-03-04T03:38:17;12.30;;;6.83;;
12052;SDS011;6087;48.982;12.064;2023-03-04T03:40:44;9.83;;;6.57;;
12052;SDS011;6087;48.982;12.064;2023-03-04T03:43:11;13.03;;;7.37;;
12052;SDS011;6087;48.982;12.064;2023-03-04T03:45:38;11.53;;;7.37;;
12052;SDS011;6087;48.982;12.064;2023-03-04T03:48:05;13.57;;;7.27;;
12052;SDS011;6087;48.982;12.064;2023-03-04T03:50:32;11.60;;;7.13;;
12052;SDS011;6087;48.982;12.064;2023-03-04T03:53:00;11.60;;;7.70;;
12052;SDS011;6087;48.982;12.064;2023-03-04T03:55:27;12.40;;;7.40;;
12052;SDS011;6087;48.982;12.064;2023-03-04T03:57:54;12.60;;;7.50;;
12052;SDS011;6087;48.982;12.064;2023-03-04T04:00:21;12.77;;;7.73;;
12052;SDS011;6087;48.982;12.064;2023-03-04T04:02:48;11.17;;;6.57;;
12052;SDS011;6087;48.982;12.064;2023-03-04T04:05:15;10.83;;;6.70;;
12052;SDS011;6087;48.982;12.064;2023-03-04T04:07:42;11.80;;;6.70;;
12052;SDS011;6087;48.982;12.064;2023-03-04T04:10:11;10.57;;;7.07;;
12052;SDS011;6087;48.982;12.064;2023-03-04T04:12:37;13.50;;;7.27;;
12052;SDS011;6087;48.982;12.064;2023-03-04T04:15:05;14.17;;;7.57;;
12052;SDS011;6087;48.982;12.064;2023-03-04T04:17:33;14.10;;;7.37;;
12052;SDS011;6087;48.982;12.064;2023-03-04T04:20:00;10.73;;;6.60;;
12052;SDS011;6087;48.982;12.064;2023-03-04T04:22:27;12.73;;;7.23;;
12052;SDS011;6087;48.982;12.064;2023-03-04T04:24:57;11.50;;;6.90;;
12052;SDS011;6087;48.982;12.064;2023-03-04T04:27:25;10.97;;;7.03;;
12052;SDS011;6087;48.982;12.064;2023-03-04T04:29:52;8.80;;;6.20;;
12052;SDS011;6087;48.982;12.064;2023-03-04T04:32:22;10.93;;;6.90;;
12052;SDS011;6087;48.982;12.064;2023-03-04T04:34:49;14.80;;;7.07;;
12052;SDS011;6087;48.982;12.064;2023-03-04T04:37:16;11.20;;;7.27;;
12052;SDS011;6087;48.982;12.064;2023-03-04T04:39:43;9.90;;;6.10;;
12052;SDS011;6087;48.982;12.064;2023-03-04T04:42:10;13.80;;;7.03;;
12052;SDS011;6087;48.982;12.064;2023-03-04T04:44:39;11.30;;;7.00;;
12052;SDS011;6087;48.982;12.064;2023-03-04T04:47:05;10.20;;;6.63;;
12052;SDS011;6087;48.982;12.064;2023-03-04T04:49:32;11.03;;;7.00;;
12052;SDS011;6087;48.982;12.064;2023-03-04T04:51:59;11.50;;;6.33;;
12052;SDS011;6087;48.982;12.064;2023-03-04T04:54:26;10.90;;;6.80;;
12052;SDS011;6087;48.982;12.064;2023-03-04T04:56:53;10.00;;;6.60;;
12052;SDS011;6087;48.982;12.064;2023-03-04T04:59:20;11.27;;;6.53;;
12052;SDS011;6087;48.982;12.064;2023-03-04T05:01:48;10.53;;;6.50;;
12052;SDS011;6087;48.982;12.064;2023-03-04T05:04:15;10.67;;;6.93;;
12052;SDS011;6087;48.982;12.064;2023-03-04T05:06:42;12.83;;;7.27;;
12052;SDS011;6087;48.982;12.064;2023-03-04T05:09:09;14.30;;;7.60;;
12052;SDS011;6087;48.982;12.064;2023-03-04T05:11:37;11.23;;;6.90;;
12052;SDS011;6087;48.982;12.064;2023-03-04T05:14:04;13.37;;;7.47;;
12052;SDS011;6087;48.982;12.064;2023-03-04T05:16:31;14.70;;;7.27;;
12052;SDS011;6087;48.982;12.064;2023-03-04T05:18:59;10.20;;;7.03;;
12052;SDS011;6087;48.982;12.064;2023-03-04T05:21:26;12.97;;;8.33;;
12052;SDS011;6087;48.982;12.064;2023-03-04T05:23:53;9.43;;;7.03;;
12052;SDS011;6087;48.982;12.064;2023-03-04T05:26:20;11.67;;;7.07;;
12052;SDS011;6087;48.982;12.064;2023-03-04T05:28:47;12.10;;;7.53;;
12052;SDS011;6087;48.982;12.064;2023-03-04T05:31:14;11.83;;;7.40;;
12052;SDS011;6087;48.982;12.064;2023-03-04T05:33:41;11.43;;;7.13;;
12052;SDS011;6087;48.982;12.064;2023-03-04T05:36:10;13.70;;;7.83;;
12052;SDS011;6087;48.982;12.064;2023-03-04T05:38:37;12.87;;;7.60;;
12052;SDS011;6087;48.982;12.064;2023-03-04T05:41:05;10.47;;;6.97;;
12052;SDS011;6087;48.982;12.064;2023-03-04T05:43:32;14.27;;;7.67;;
12052;SDS011;6087;48.982;12.064;2023-03-04T05:46:00;13.37;;;7.87;;
12052;SDS011;6087;48.982;12.064;2023-03-04T05:48:28;12.27;;;8.40;;
12052;SDS011;6087;48.982;12.064;2023-03-04T05:50:55;12.00;;;7.50;;
12052;SDS011;6087;48.982;12.064;2023-03-04T05:56:07;13.87;;;8.53;;
12052;SDS011;6087;48.982;12.064;2023-03-04T05:58:34;13.20;;;9.13;;
12052;SDS011;6087;48.982;12.064;2023-03-04T06:01:01;14.60;;;9.30;;
12052;SDS011;6087;48.982;12.064;2023-03-04T06:03:29;16.43;;;8.87;;
12052;SDS011;6087;48.982;12.064;2023-03-04T06:05:56;10.57;;;7.67;;
12052;SDS011;6087;48.982;12.064;2023-03-04T06:08:29;14.23;;;7.83;;
12052;SDS011;6087;48.982;12.064;2023-03-04T06:10:57;13.20;;;7.83;;
12052;SDS011;6087;48.982;12.064;2023-03-04T06:13:27;13.87;;;9.20;;
12052;SDS011;6087;48.982;12.064;2023-03-04T06:15:54;11.57;;;7.57;;
12052;SDS011;6087;48.982;12.064;2023-03-04T06:18:23;15.80;;;9.10;;
12052;SDS011;6087;48.982;12.064;2023-03-04T06:20:58;10.77;;;8.10;;
12052;SDS011;6087;48.982;12.064;2023-03-04T06:23:26;13.10;;;7.73;;
12052;SDS011;6087;48.982;12.064;2023-03-04T06:25:54;12.10;;;8.00;;
12052;SDS011;6087;48.982;12.064;2023-03-04T06:28:24;12.80;;;8.37;;
12052;SDS011;6087;48.982;12.064;2023-03-04T06:30:50;16.60;;;8.93;;
12052;SDS011;6087;48.982;12.064;2023-03-04T06:33:18;11.60;;;7.87;;
12052;SDS011;6087;48.982;12.064;2023-03-04T06:35:47;16.10;;;8.97;;
12052;SDS011;6087;48.982;12.064;2023-03-04T06:38:18;14.10;;;8.50;;
12052;SDS011;6087;48.982;12.064;2023-03-04T06:40:45;11.93;;;8.63;;
12052;SDS011;6087;48.982;12.064;2023-03-04T06:43:13;14.27;;;8.50;;
12052;SDS011;6087;48.982;12.064;2023-03-04T06:45:40;13.57;;;8.70;;
12052;SDS011;6087;48.982;12.064;2023-03-04T06:48:07;13.13;;;8.30;;
12052;SDS011;6087;48.982;12.064;2023-03-04T06:50:40;14.73;;;8.50;;
12052;SDS011;6087;48.982;12.064;2023-03-04T06:53:13;12.97;;;7.97;;
12052;SDS011;6087;48.982;12.064;2023-03-04T06:55:40;14.00;;;8.73;;
12052;SDS011;6087;48.982;12.064;2023-03-04T06:58:07;14.37;;;8.93;;
12052;SDS011;6087;48.982;12.064;2023-03-04T07:00:35;15.30;;;9.67;;
12052;SDS011;6087;48.982;12.064;2023-03-04T07:03:10;14.37;;;8.93;;
12052;SDS011;6087;48.982;12.064;2023-03-04T07:05:39;14.07;;;9.27;;
12052;SDS011;6087;48.982;12.064;2023-03-04T07:08:07;15.67;;;9.50;;
12052;SDS011;6087;48.982;12.064;2023-03-04T07:10:37;14.40;;;8.57;;
12052;SDS011;6087;48.982;12.064;2023-03-04T07:13:06;13.73;;;9.57;;
12052;SDS011;6087;48.982;12.064;2023-03-04T07:15:39;15.83;;;10.67;;
12052;SDS011;6087;48.982;12.064;2023-03-04T07:18:06;14.33;;;10.07;;
12052;SDS011;6087;48.982;12.064;2023-03-04T07:20:36;12.63;;;9.03;;
12052;SDS011;6087;48.982;12.064;2023-03-04T07:23:08;11.97;;;9.20;;
12052;SDS011;6087;48.982;12.064;2023-03-04T07:25:35;16.57;;;9.87;;
12052;SDS011;6087;48.982;12.064;2023-03-04T07:28:02;12.80;;;9.03;;
12052;SDS011;6087;48.982;12.064;2023-03-04T07:30:29;14.47;;;9.07;;
12052;SDS011;6087;48.982;12.064;2023-03-04T07:32:57;14.13;;;8.93;;
12052;SDS011;6087;48.982;12.064;2023-03-04T07:35:24;12.93;;;8.53;;
12052;SDS011;6087;48.982;12.064;2023-03-04T07:37:54;16.07;;;9.30;;
12052;SDS011;6087;48.982;12.064;2023-03-04T07:40:24;14.73;;;9.57;;
12052;SDS011;6087;48.982;12.064;2023-03-04T07:42:51;17.37;;;9.83;;
12052;SDS011;6087;48.982;12.064;2023-03-04T07:45:19;15.00;;;9.37;;
12052;SDS011;6087;48.982;12.064;2023-03-04T07:47:46;12.90;;;8.93;;
12052;SDS011;6087;48.982;12.064;2023-03-04T07:50:25;17.50;;;10.20;;
12052;SDS011;6087;48.982;12.064;2023-03-04T07:52:52;14.50;;;9.77;;
12052;SDS011;6087;48.982;12.064;2023-03-04T07:55:19;15.67;;;9.37;;
12052;SDS011;6087;48.982;12.064;2023-03-04T07:57:46;14.53;;;9.17;;
12052;SDS011;6087;48.982;12.064;2023-03-04T08:00:14;13.97;;;9.63;;
12052;SDS011;6087;48.982;12.064;2023-03-04T08:02:42;16.37;;;9.93;;
12052;SDS011;6087;48.982;12.064;2023-03-04T08:05:09;15.23;;;9.93;;
12052;SDS011;6087;48.982;12.064;2023-03-04T08:07:37;18.07;;;10.43;;
12052;SDS011;6087;48.982;12.064;2023-03-04T08:10:05;13.87;;;9.20;;
12052;SDS011;6087;48.982;12.064;2023-03-04T08:12:33;17.37;;;9.57;;
12052;SDS011;6087;48.982;12.064;2023-03-04T08:15:00;13.57;;;9.63;;
12052;SDS011;6087;48.982;12.064;2023-03-04T08:17:27;14.80;;;8.80;;
12052;SDS011;6087;48.982;12.064;2023-03-04T08:19:54;13.53;;;8.07;;
12052;SDS011;6087;48.982;12.064;2023-03-04T08:22:21;16.53;;;7.80;;
12052;SDS011;6087;48.982;12.064;2023-03-04T08:24:49;10.57;;;7.17;;
12052;SDS011;6087;48.982;12.064;2023-03-04T08:27:16;12.20;;;7.70;;
12052;SDS011;6087;48.982;12.064;2023-03-04T08:29:43;12.40;;;7.50;;
12052;SDS011;6087;48.982;12.064;2023-03-04T08:32:10;12.63;;;7.73;;
12052;SDS011;6087;48.982;12.064;2023-03-04T08:34:37;11.97;;;7.57;;
12052;SDS011;6087;48.982;12.064;2023-03-04T08:37:05;12.83;;;7.50;;
12052;SDS011;6087;48.982;12.064;2023-03-04T08:39:32;10.97;;;7.17;;
12052;SDS011;6087;48.982;12.064;2023-03-04T08:42:01;12.97;;;7.37;;
12052;SDS011;6087;48.982;12.064;2023-03-04T08:44:28;13.90;;;7.37;;
12052;SDS011;6087;48.982;12.064;2023-03-04T08:46:55;15.83;;;7.83;;
12052;SDS011;6087;48.982;12.064;2023-03-04T08:49:22;13.00;;;7.23;;
12052;SDS011;6087;48.982;12.064;2023-03-04T08:51:49;13.37;;;7.60;;
12052;SDS011;6087;48.982;12.064;2023-03-04T08:54:16;13.33;;;7.70;;
12052;SDS011;6087;48.982;12.064;2023-03-04T08:56:43;10.40;;;7.03;;
12052;SDS011;6087;48.982;12.064;2023-03-04T08:59:13;14.70;;;7.57;;
12052;SDS011;6087;48.982;12.064;2023-03-04T09:01:40;12.80;;;7.33;;
12052;SDS011;6087;48.982;12.064;2023-03-04T09:04:07;12.57;;;6.47;;
12052;SDS011;6087;48.982;12.064;2023-03-04T09:06:34;13.83;;;6.53;;
12052;SDS011;6087;48.982;12.064;2023-03-04T09:09:01;9.90;;;6.67;;
12052;SDS011;6087;48.982;12.064;2023-03-04T09:11:28;12.17;;;7.20;;
12052;SDS011;6087;48.982;12.064;2023-03-04T09:13:55;15.13;;;8.10;;
12052;SDS011;6087;48.982;12.064;2023-03-04T09:16:23;10.53;;;7.20;;
12052;SDS011;6087;48.982;12.064;2023-03-04T09:18:50;10.60;;;7.00;;
12052;SDS011;6087;48.982;12.064;2023-03-04T09:21:17;12.57;;;7.47;;
12052;SDS011;6087;48.982;12.064;2023-03-04T09:23:44;11.80;;;7.73;;
12052;SDS011;6087;48.982;12.064;2023-03-04T09:26:15;9.30;;;7.07;;
12052;SDS011;6087;48.982;12.064;2023-03-04T09:28:48;11.83;;;7.00;;
12052;SDS011;6087;48.982;12.064;2023-03-04T09:31:15;11.13;;;6.57;;
12052;SDS011;6087;48.982;12.064;2023-03-04T09:33:44;9.47;;;6.13;;
12052;SDS011;6087;48.982;12.064;2023-03-04T09:36:11;12.03;;;6.73;;
12052;SDS011;6087;48.982;12.064;2023-03-04T09:38:39;12.70;;;6.77;;
12052;SDS011;6087;48.982;12.064;2023-03-04T09:41:07;10.67;;;6.30;;
12052;SDS011;6087;48.982;12.064;2023-03-04T09:43:36;8.80;;;5.77;;
12052;SDS011;6087;48.982;12.064;2023-03-04T09:46:06;10.80;;;6.87;;
12052;SDS011;6087;48.982;12.064;2023-03-04T09:48:38;13.00;;;7.30;;
12052;SDS011;6087;48.982;12.064;2023-03-04T09:51:13;10.07;;;6.67;;
12052;SDS011;6087;48.982;12.064;2023-03-04T09:53:46;13.10;;;6.70;;
12052;SDS011;6087;48.982;12.064;2023-03-04T09:56:21;10.73;;;7.17;;
12052;SDS011;6087;48.982;12.064;2023-03-04T09:58:51;11.40;;;7.47;;
12052;SDS011;6087;48.982;12.064;2023-03-04T10:01:28;14.57;;;7.23;;
12052;SDS011;6087;48.982;12.064;2023-03-04T10:04:00;10.30;;;6.33;;
12052;SDS011;6087;48.982;12.064;2023-03-04T10:06:33;9.83;;;6.77;;
12052;SDS011;6087;48.982;12.064;2023-03-04T10:09:02;9.20;;;6.33;;
12052;SDS011;6087;48.982;12.064;2023-03-04T10:11:36;9.40;;;6.37;;
12052;SDS011;6087;48.982;12.064;2023-03-04T10:14:13;8.60;;;6.03;;
12052;SDS011;6087;48.982;12.064;2023-03-04T10:16:51;12.37;;;7.00;;
12052;SDS011;6087;48.982;12.064;2023-03-04T10:19:23;11.50;;;7.07;;
12052;SDS011;6087;48.982;12.064;2023-03-04T10:22:02;12.40;;;7.37;;
12052;SDS011;6087;48.982;12.064;2023-03-04T10:24:42;13.33;;;7.50;;
12052;SDS011;6087;48.982;12.064;2023-03-04T10:27:11;13.73;;;7.40;;
12052;SDS011;6087;48.982;12.064;2023-03-04T10:29:41;12.57;;;6.93;;
12052;SDS011;6087;48.982;12.064;2023-03-04T10:32:09;14.63;;;7.60;;
12052;SDS011;6087;48.982;12.064;2023-03-04T10:34:42;13.13;;;8.60;;
12052;SDS011;6087;48.982;12.064;2023-03-04T10:37:10;16.27;;;8.27;;
12052;SDS011;6087;48.982;12.064;2023-03-04T10:39:38;11.77;;;7.03;;
12052;SDS011;6087;48.982;12.064;2023-03-04T10:42:09;15.97;;;8.60;;
12052;SDS011;6087;48.982;12.064;2023-03-04T10:44:53;14.77;;;7.77;;
12052;SDS011;6087;48.982;12.064;2023-03-04T10:47:22;12.03;;;8.47;;
12052;SDS011;6087;48.982;12.064;2023-03-04T10:49:50;15.03;;;8.63;;
12052;SDS011;6087;48.982;12.064;2023-03-04T10:52:22;13.53;;;8.90;;
12052;SDS011;6087;48.982;12.064;2023-03-04T10:54:54;13.07;;;8.27;;
12052;SDS011;6087;48.982;12.064;2023-03-04T10:57:23;15.03;;;8.97;;
12052;SDS011;6087;48.982;12.064;2023-03-04T10:59:54;17.70;;;9.03;;
12052;SDS011;6087;48.982;12.064;2023-03-04T11:02:23;15.13;;;10.00;;
12052;SDS011;6087;48.982;12.064;2023-03-04T11:04:53;18.93;;;8.53;;
12052;SDS011;6087;48.982;12.064;2023-03-04T11:07:24;15.87;;;8.57;;
12052;SDS011;6087;48.982;12.064;2023-03-04T11:09:52;16.33;;;8.73;;
12052;SDS011;6087;48.982;12.064;2023-03-04T11:12:20;14.47;;;9.10;;
12052;SDS011;6087;48.982;12.064;2023-03-04T11:14:56;16.63;;;8.70;;
12052;SDS011;6087;48.982;12.064;2023-03-04T11:17:24;17.93;;;9.93;;
12052;SDS011;6087;48.982;12.064;2023-03-04T11:19:54;16.90;;;9.00;;
12052;SDS011;6087;48.982;12.064;2023-03-04T11:22:25;17.77;;;9.67;;
12052;SDS011;6087;48.982;12.064;2023-03-04T11:24:58;18.43;;;9.73;;
12052;SDS011;6087;48.982;12.064;2023-03-04T11:27:37;19.33;;;10.83;;
12052;SDS011;6087;48.982;12.064;2023-03-04T11:30:24;18.87;;;10.60;;
12052;SDS011;6087;48.982;12.064;2023-03-04T11:32:55;17.23;;;10.27;;
12052;SDS011;6087;48.982;12.064;2023-03-04T11:35:32;17.07;;;10.40;;
12052;SDS011;6087;48.982;12.064;2023-03-04T11:38:07;16.77;;;10.10;;
12052;SDS011;6087;48.982;12.064;2023-03-04T11:40:42;13.00;;;9.63;;
12052;SDS011;6087;48.982;12.064;2023-03-04T11:43:11;18.00;;;11.03;;
12052;SDS011;6087;48.982;12.064;2023-03-04T11:45:49;18.67;;;10.57;;
12052;SDS011;6087;48.982;12.064;2023-03-04T11:48:32;18.23;;;10.20;;
12052;SDS011;6087;48.982;12.064;2023-03-04T11:51:08;16.90;;;9.80;;
12052;SDS011;6087;48.982;12.064;2023-03-04T11:53:51;14.13;;;8.87;;
12052;SDS011;6087;48.982;12.064;2023-03-04T11:56:31;19.23;;;11.17;;
12052;SDS011;6087;48.982;12.064;2023-03-04T11:59:12;18.13;;;10.47;;
12052;SDS011;6087;48.982;12.064;2023-03-04T12:01:55;19.67;;;10.70;;
12052;SDS011;6087;48.982;12.064;2023-03-04T12:04:38;19.63;;;11.33;;
12052;SDS011;6087;48.982;12.064;2023-03-04T12:07:21;17.60;;;10.70;;
12052;SDS011;6087;48.982;12.064;2023-03-04T12:10:19;20.73;;;11.60;;
12052;SDS011;6087;48.982;12.064;2023-03-04T12:12:59;18.70;;;11.70;;
12052;SDS011;6087;48.982;12.064;2023-03-04T12:15:43;21.50;;;12.30;;
12052;SDS011;6087;48.982;12.064;2023-03-04T12:18:29;17.10;;;11.43;;
12052;SDS011;6087;48.982;12.064;2023-03-04T12:21:11;20.13;;;10.43;;
12052;SDS011;6087;48.982;12.064;2023-03-04T12:23:53;21.60;;;12.20;;
12052;SDS011;6087;48.982;12.064;2023-03-04T12:26:41;19.03;;;10.80;;
12052;SDS011;6087;48.982;12.064;2023-03-04T12:29:16;49.77;;;24.27;;
12052;SDS011;6087;48.982;12.064;2023-03-04T12:31:59;20.43;;;11.90;;
12052;SDS011;6087;48.982;12.064;2023-03-04T12:34:38;18.20;;;11.17;;
12052;SDS011;6087;48.982;12.064;2023-03-04T12:37:18;19.67;;;12.33;;
12052;SDS011;6087;48.982;12.064;2023-03-04T12:40:04;14.73;;;10.17;;
12052;SDS011;6087;48.982;12.064;2023-03-04T12:42:45;16.50;;;10.73;;
12052;SDS011;6087;48.982;12.064;2023-03-04T12:45:24;19.43;;;10.47;;
12052;SDS011;6087;48.982;12.064;2023-03-04T12:47:58;21.00;;;12.03;;
12052;SDS011;6087;48.982;12.064;2023-03-04T12:50:35;20.03;;;11.80;;
12052;SDS011;6087;48.982;12.064;2023-03-04T12:53:08;18.47;;;11.03;;
12052;SDS011;6087;48.982;12.064;2023-03-04T12:55:43;18.77;;;12.20;;
12052;SDS011;6087;48.982;12.064;2023-03-04T12:58:14;17.47;;;11.13;;
12052;SDS011;6087;48.982;12.064;2023-03-04T13:00:46;18.30;;;12.37;;
12052;SDS011;6087;48.982;12.064;2023-03-04T13:03:19;16.53;;;10.43;;
12052;SDS011;6087;48.982;12.064;2023-03-04T13:05:56;19.93;;;11.47;;
12052;SDS011;6087;48.982;12.064;2023-03-04T13:08:33;19.23;;;11.53;;
12052;SDS011;6087;48.982;12.064;2023-03-04T13:20:11;20.23;;;11.50;;
12052;SDS011;6087;48.982;12.064;2023-03-04T13:22:46;17.73;;;11.33;;
12052;SDS011;6087;48.982;12.064;2023-03-04T13:25:26;16.90;;;10.73;;
12052;SDS011;6087;48.982;12.064;2023-03-04T13:28:12;19.60;;;10.50;;
12052;SDS011;6087;48.982;12.064;2023-03-04T13:33:44;20.93;;;11.57;;
12052;SDS011;6087;48.982;12.064;2023-03-04T13:39:22;20.50;;;11.30;;
12052;SDS011;6087;48.982;12.064;2023-03-04T13:42:02;18.87;;;11.27;;
12052;SDS011;6087;48.982;12.064;2023-03-04T13:44:34;19.43;;;11.33;;
12052;SDS011;6087;48.982;12.064;2023-03-04T13:47:31;16.10;;;10.30;;
12052;SDS011;6087;48.982;12.064;2023-03-04T13:50:26;19.50;;;11.23;;
12052;SDS011;6087;48.982;12.064;2023-03-04T13:53:21;19.40;;;10.70;;
12052;SDS011;6087;48.982;12.064;2023-03-04T13:56:11;17.30;;;10.67;;
12052;SDS011;6087;48.982;12.064;2023-03-04T13:58:47;21.97;;;11.67;;
12052;SDS011;6087;48.982;12.064;2023-03-04T14:01:23;18.20;;;11.00;;
12052;SDS011;6087;48.982;12.064;2023-03-04T14:03:59;16.27;;;11.87;;
12052;SDS011;6087;48.982;12.064;2023-03-04T14:06:39;18.87;;;11.70;;
12052;SDS011;6087;48.982;12.064;2023-03-04T14:09:11;19.30;;;11.27;;
12052;SDS011;6087;48.982;12.064;2023-03-04T14:11:40;16.60;;;11.40;;
12052;SDS011;6087;48.982;12.064;2023-03-04T14:14:10;16.30;;;11.17;;
12052;SDS011;6087;48.982;12.064;2023-03-04T14:16:45;31.93;;;16.93;;
12052;SDS011;6087;48.982;12.064;2023-03-04T14:19:20;22.17;;;13.10;;
12052;SDS011;6087;48.982;12.064;2023-03-04T14:21:50;15.77;;;10.03;;
12052;SDS011;6087;48.982;12.064;2023-03-04T14:24:21;17.80;;;11.60;;
12052;SDS011;6087;48.982;12.064;2023-03-04T14:26:49;20.17;;;11.03;;
12052;SDS011;6087;48.982;12.064;2023-03-04T14:29:31;16.73;;;11.63;;
12052;SDS011;6087;48.982;12.064;2023-03-04T14:31:58;18.10;;;11.73;;
12052;SDS011;6087;48.982;12.064;2023-03-04T14:34:29;17.33;;;10.70;;
12052;SDS011;6087;48.982;12.064;2023-03-04T14:36:59;13.60;;;10.60;;
12052;SDS011;6087;48.982;12.064;2023-03-04T14:39:28;18.27;;;11.80;;
12052;SDS011;6087;48.982;12.064;2023-03-04T14:42:00;17.00;;;10.63;;
12052;SDS011;6087;48.982;12.064;2023-03-04T14:44:32;17.33;;;11.43;;
12052;SDS011;6087;48.982;12.064;2023-03-04T14:47:05;16.53;;;11.37;;
12052;SDS011;6087;48.982;12.064;2023-03-04T14:49:37;21.83;;;10.67;;
12052;SDS011;6087;48.982;12.064;2023-03-04T14:52:05;13.27;;;9.60;;
12052;SDS011;6087;48.982;12.064;2023-03-04T14:54:33;18.97;;;11.53;;
12052;SDS011;6087;48.982;12.064;2023-03-04T14:57:21;17.57;;;12.30;;
12052;SDS011;6087;48.982;12.064;2023-03-04T14:59:50;16.03;;;11.23;;
12052;SDS011;6087;48.982;12.064;2023-03-04T15:02:25;18.23;;;11.10;;
12052;SDS011;6087;48.982;12.064;2023-03-04T15:04:58;18.40;;;11.57;;
12052;SDS011;6087;48.982;12.064;2023-03-04T15:07:29;15.77;;;11.30;;
12052;SDS011;6087;48.982;12.064;2023-03-04T15:09:58;15.90;;;11.30;;
12052;SDS011;6087;48.982;12.064;2023-03-04T15:12:29;17.30;;;11.37;;
12052;SDS011;6087;48.982;12.064;2023-03-04T15:14:58;18.13;;;12.27;;